GBYD/BJL METAR and TAF weather

Enter ICAO airport designator
Station Type Date Time Source
GBYD METAR 2020/04/09 19:00 UTC NOAA

GBYD 091900Z 27010KT CAVOK 29/19 Q1007


Station Type Date Time Source
GBYD Decoded METAR 2020/04/09 19:00 UTC NOAA

Banjul / Yundum, Gambia, The (GBYD) 13-21N 016-48W 36M
Apr 09, 2020 - 03:00 PM EDT / 2020.04.09 1900 UTC
Wind: from the W (270 degrees) at 12 MPH (10 KT):0
Visibility: greater than 7 mile(s):0
Temperature: 84 F (29 C)
Dew Point: 66 F (19 C)
Relative Humidity: 54%
Pressure (altimeter): 29.74 in. Hg (1007 hPa)
ob: GBYD 091900Z 27010KT CAVOK 29/19 Q1007
cycle: 19

Station Type Date Time Source
GBYD TAF 2020/04/09 18:24 UTC NOAA

TAF TAF GBYD 091730Z 0918/1024 26006KT CAVOK

Example: see airport list